Alma, MI

12:28 PM EDT on August 29, 2015 (GMT -0400)
Gratiot Community | | Change Station
CLOSE
Current Station
Airport
Location: Alma,
Elevation: 751 ft
Nearby Weather Stations

Elev 751 ft 43.32 °N, 84.69 °W | Updated 14 minutes ago

Overcast
Overcast
66 °F
Feels Like 66 °F
N
5
Wind Variable Wind from SE

Today
High -- | Low -- °F
--% Chance of Precip.
Yesterday
High -- | Low -- °F
Precip. -- in
6:59 AM 8:19 PM
Full, 100% visible
Pressure 30.13 in
Visibility 7.0 miles
Clouds Overcast 6500 ft
Dew Point 64 °F
Humidity 95%
Rainfall 0.00 in
Snow Depth Not available.
UV 2 out of 12
Pollen 8.50 out of 12
Air Quality Not available.
Flu Activity Not available.
METAR KAMN 291614Z AUTO 13004KT 7SM OVC065 19/18 A3013 RMK AO2 T01860178
Pressure 30.13 in
Visibility 7.0 miles
Clouds Overcast 6500 ft
Dew Point 64 °F
Humidity 95%
Rainfall 0.00 in
Snow Depth Not available.
UV 2 out of 12
Pollen 8.50 out of 12
Air Quality Not available.
Flu Activity Not available.
METAR KAMN 291614Z AUTO 13004KT 7SM OVC065 19/18 A3013 RMK AO2 T01860178

10-Day Weather Forecast

×

Almanac

Astronomy

Aug. 29, 2015 Rise Set
Actual Time
Civil Twilight
Nautical Twilight
Astronomical Twilight
Moon
Length of Visible Light
Length of Day
Tomorrow will be .
, % of the Moon is Illuminated

Today's Extremes

State Highs State Lows

Community

WunderPhotos

Upload Photos

1,850,719 photos uploaded!

WunderBlogs® & News

Nearby

Air Quality

  Air Quality AQ Index Pollutant
Not available.

Snow Depth

Station Depth Elevation

Earthquake Activity

City Distance Mag. Time & Date
Minimum magnitude displayed is 2.5.

Coastal Water Temperatures

Place Temperature

Stations

Nearby Weather Stations

Station Location Temp. Windchill Dew Point Humidity Wind Precip. Elev Updated Type